sensor_id;sensor_type;location;lat;lon;timestamp;P1;durP1;ratioP1;P2;durP2;ratioP2
3417;SDS011;68007;51.312;12.372;2023-05-10T00:01:25;6.47;;;3.30;;
3417;SDS011;68007;51.312;12.372;2023-05-10T00:03:52;3.50;;;3.20;;
3417;SDS011;68007;51.312;12.372;2023-05-10T00:06:20;5.30;;;3.93;;
3417;SDS011;68007;51.312;12.372;2023-05-10T00:08:47;10.80;;;4.10;;
3417;SDS011;68007;51.312;12.372;2023-05-10T00:11:16;5.40;;;3.33;;
3417;SDS011;68007;51.312;12.372;2023-05-10T00:13:44;4.40;;;3.80;;
3417;SDS011;68007;51.312;12.372;2023-05-10T00:16:11;5.97;;;4.00;;
3417;SDS011;68007;51.312;12.372;2023-05-10T00:18:39;4.07;;;3.40;;
3417;SDS011;68007;51.312;12.372;2023-05-10T00:21:07;5.20;;;3.57;;
3417;SDS011;68007;51.312;12.372;2023-05-10T00:23:34;4.63;;;3.60;;
3417;SDS011;68007;51.312;12.372;2023-05-10T00:26:02;7.77;;;3.93;;
3417;SDS011;68007;51.312;12.372;2023-05-10T00:28:31;8.73;;;3.57;;
3417;SDS011;68007;51.312;12.372;2023-05-10T00:30:58;5.10;;;3.40;;
3417;SDS011;68007;51.312;12.372;2023-05-10T00:33:26;7.53;;;3.57;;
3417;SDS011;68007;51.312;12.372;2023-05-10T00:35:53;4.40;;;3.23;;
3417;SDS011;68007;51.312;12.372;2023-05-10T00:38:21;3.93;;;3.07;;
3417;SDS011;68007;51.312;12.372;2023-05-10T00:40:48;5.23;;;3.60;;
3417;SDS011;68007;51.312;12.372;2023-05-10T00:43:16;5.00;;;3.70;;
3417;SDS011;68007;51.312;12.372;2023-05-10T00:45:44;4.83;;;3.50;;
3417;SDS011;68007;51.312;12.372;2023-05-10T00:48:12;4.93;;;3.20;;
3417;SDS011;68007;51.312;12.372;2023-05-10T00:50:40;5.70;;;3.50;;
3417;SDS011;68007;51.312;12.372;2023-05-10T00:53:08;3.80;;;3.40;;
3417;SDS011;68007;51.312;12.372;2023-05-10T00:55:36;3.83;;;3.43;;
3417;SDS011;68007;51.312;12.372;2023-05-10T00:58:04;5.70;;;3.60;;
3417;SDS011;68007;51.312;12.372;2023-05-10T01:00:32;5.47;;;4.13;;
3417;SDS011;68007;51.312;12.372;2023-05-10T01:03:01;7.60;;;3.90;;
3417;SDS011;68007;51.312;12.372;2023-05-10T01:05:29;6.10;;;3.80;;
3417;SDS011;68007;51.312;12.372;2023-05-10T01:07:57;4.43;;;3.23;;
3417;SDS011;68007;51.312;12.372;2023-05-10T01:10:25;4.70;;;3.60;;
3417;SDS011;68007;51.312;12.372;2023-05-10T01:12:52;5.70;;;3.87;;
3417;SDS011;68007;51.312;12.372;2023-05-10T01:15:20;4.63;;;3.70;;
3417;SDS011;68007;51.312;12.372;2023-05-10T01:17:48;4.60;;;3.20;;
3417;SDS011;68007;51.312;12.372;2023-05-10T01:20:17;4.80;;;3.47;;
3417;SDS011;68007;51.312;12.372;2023-05-10T01:23:02;5.40;;;3.33;;
3417;SDS011;68007;51.312;12.372;2023-05-10T01:32:09;6.70;;;3.20;;
3417;SDS011;68007;51.312;12.372;2023-05-10T01:34:52;9.00;;;3.77;;
3417;SDS011;68007;51.312;12.372;2023-05-10T01:37:27;5.47;;;3.50;;
3417;SDS011;68007;51.312;12.372;2023-05-10T01:40:00;8.07;;;3.70;;
3417;SDS011;68007;51.312;12.372;2023-05-10T01:42:36;4.20;;;3.40;;
3417;SDS011;68007;51.312;12.372;2023-05-10T01:45:14;4.70;;;3.30;;
3417;SDS011;68007;51.312;12.372;2023-05-10T01:47:54;3.80;;;3.30;;
3417;SDS011;68007;51.312;12.372;2023-05-10T01:50:31;4.53;;;3.43;;
3417;SDS011;68007;51.312;12.372;2023-05-10T01:53:01;4.80;;;3.53;;
3417;SDS011;68007;51.312;12.372;2023-05-10T01:55:30;5.20;;;3.63;;
3417;SDS011;68007;51.312;12.372;2023-05-10T01:58:02;3.80;;;3.40;;
3417;SDS011;68007;51.312;12.372;2023-05-10T02:00:35;5.70;;;3.43;;
3417;SDS011;68007;51.312;12.372;2023-05-10T02:03:08;4.50;;;3.40;;
3417;SDS011;68007;51.312;12.372;2023-05-10T02:05:37;9.73;;;3.50;;
3417;SDS011;68007;51.312;12.372;2023-05-10T02:08:06;3.70;;;3.40;;
3417;SDS011;68007;51.312;12.372;2023-05-10T02:10:34;3.70;;;2.87;;
3417;SDS011;68007;51.312;12.372;2023-05-10T02:13:02;3.33;;;3.03;;
3417;SDS011;68007;51.312;12.372;2023-05-10T02:15:31;5.60;;;3.27;;
3417;SDS011;68007;51.312;12.372;2023-05-10T02:18:00;4.10;;;3.40;;
3417;SDS011;68007;51.312;12.372;2023-05-10T02:20:32;4.40;;;3.30;;
3417;SDS011;68007;51.312;12.372;2023-05-10T02:23:01;4.40;;;3.83;;
3417;SDS011;68007;51.312;12.372;2023-05-10T02:25:30;12.67;;;3.40;;
3417;SDS011;68007;51.312;12.372;2023-05-10T02:28:00;5.77;;;3.13;;
3417;SDS011;68007;51.312;12.372;2023-05-10T02:30:30;4.67;;;3.70;;
3417;SDS011;68007;51.312;12.372;2023-05-10T02:32:59;6.50;;;3.43;;
3417;SDS011;68007;51.312;12.372;2023-05-10T02:35:27;5.57;;;3.50;;
3417;SDS011;68007;51.312;12.372;2023-05-10T02:37:57;3.97;;;3.37;;
3417;SDS011;68007;51.312;12.372;2023-05-10T02:40:26;3.90;;;3.43;;
3417;SDS011;68007;51.312;12.372;2023-05-10T02:42:56;4.10;;;3.33;;
3417;SDS011;68007;51.312;12.372;2023-05-10T02:45:26;11.53;;;4.40;;
3417;SDS011;68007;51.312;12.372;2023-05-10T02:47:56;4.63;;;3.57;;
3417;SDS011;68007;51.312;12.372;2023-05-10T02:50:26;8.80;;;3.33;;
3417;SDS011;68007;51.312;12.372;2023-05-10T02:52:59;7.33;;;3.93;;
3417;SDS011;68007;51.312;12.372;2023-05-10T02:55:31;5.40;;;3.60;;
3417;SDS011;68007;51.312;12.372;2023-05-10T02:58:02;6.93;;;4.10;;
3417;SDS011;68007;51.312;12.372;2023-05-10T03:00:30;7.57;;;4.27;;
3417;SDS011;68007;51.312;12.372;2023-05-10T03:02:58;5.40;;;3.27;;
3417;SDS011;68007;51.312;12.372;2023-05-10T03:05:26;5.83;;;3.80;;
3417;SDS011;68007;51.312;12.372;2023-05-10T03:07:53;6.77;;;4.50;;
3417;SDS011;68007;51.312;12.372;2023-05-10T03:10:23;6.70;;;3.77;;
3417;SDS011;68007;51.312;12.372;2023-05-10T03:12:56;8.00;;;3.67;;
3417;SDS011;68007;51.312;12.372;2023-05-10T03:15:37;5.97;;;3.90;;
3417;SDS011;68007;51.312;12.372;2023-05-10T03:18:09;3.83;;;3.40;;
3417;SDS011;68007;51.312;12.372;2023-05-10T03:20:41;7.00;;;3.93;;
3417;SDS011;68007;51.312;12.372;2023-05-10T03:23:12;5.07;;;3.50;;
3417;SDS011;68007;51.312;12.372;2023-05-10T03:25:47;5.53;;;3.40;;
3417;SDS011;68007;51.312;12.372;2023-05-10T03:28:16;11.23;;;4.20;;
3417;SDS011;68007;51.312;12.372;2023-05-10T03:30:45;5.83;;;4.03;;
3417;SDS011;68007;51.312;12.372;2023-05-10T03:33:13;8.00;;;3.90;;
3417;SDS011;68007;51.312;12.372;2023-05-10T03:35:41;7.07;;;3.10;;
3417;SDS011;68007;51.312;12.372;2023-05-10T03:38:11;9.87;;;3.70;;
3417;SDS011;68007;51.312;12.372;2023-05-10T03:40:39;7.80;;;3.30;;
3417;SDS011;68007;51.312;12.372;2023-05-10T03:43:08;5.70;;;4.30;;
3417;SDS011;68007;51.312;12.372;2023-05-10T03:45:35;4.27;;;3.30;;
3417;SDS011;68007;51.312;12.372;2023-05-10T03:48:03;4.17;;;3.47;;
3417;SDS011;68007;51.312;12.372;2023-05-10T03:50:31;5.10;;;3.10;;
3417;SDS011;68007;51.312;12.372;2023-05-10T03:52:58;5.73;;;3.40;;
3417;SDS011;68007;51.312;12.372;2023-05-10T03:55:26;6.60;;;3.47;;
3417;SDS011;68007;51.312;12.372;2023-05-10T03:57:53;6.13;;;3.37;;
3417;SDS011;68007;51.312;12.372;2023-05-10T04:00:23;6.43;;;3.80;;
3417;SDS011;68007;51.312;12.372;2023-05-10T04:02:50;5.37;;;3.50;;
3417;SDS011;68007;51.312;12.372;2023-05-10T04:05:18;5.47;;;3.70;;
3417;SDS011;68007;51.312;12.372;2023-05-10T04:07:45;6.50;;;4.30;;
3417;SDS011;68007;51.312;12.372;2023-05-10T04:10:14;6.67;;;3.90;;
3417;SDS011;68007;51.312;12.372;2023-05-10T04:12:43;8.23;;;3.87;;
3417;SDS011;68007;51.312;12.372;2023-05-10T04:15:10;7.70;;;3.70;;
3417;SDS011;68007;51.312;12.372;2023-05-10T04:17:39;5.70;;;3.53;;
3417;SDS011;68007;51.312;12.372;2023-05-10T04:20:07;6.57;;;3.83;;
3417;SDS011;68007;51.312;12.372;2023-05-10T04:22:35;3.80;;;3.40;;
3417;SDS011;68007;51.312;12.372;2023-05-10T04:25:03;4.30;;;3.53;;
3417;SDS011;68007;51.312;12.372;2023-05-10T04:27:31;7.97;;;3.77;;
3417;SDS011;68007;51.312;12.372;2023-05-10T04:29:59;3.57;;;3.27;;
3417;SDS011;68007;51.312;12.372;2023-05-10T04:32:26;11.10;;;4.50;;
3417;SDS011;68007;51.312;12.372;2023-05-10T04:34:56;8.43;;;3.43;;
3417;SDS011;68007;51.312;12.372;2023-05-10T04:37:24;7.00;;;3.23;;
3417;SDS011;68007;51.312;12.372;2023-05-10T04:39:51;5.00;;;3.97;;
3417;SDS011;68007;51.312;12.372;2023-05-10T04:42:19;10.10;;;4.13;;
3417;SDS011;68007;51.312;12.372;2023-05-10T04:44:46;9.53;;;3.57;;
3417;SDS011;68007;51.312;12.372;2023-05-10T04:47:14;10.73;;;3.80;;
3417;SDS011;68007;51.312;12.372;2023-05-10T04:49:42;7.80;;;4.77;;
3417;SDS011;68007;51.312;12.372;2023-05-10T04:52:10;5.70;;;4.40;;
3417;SDS011;68007;51.312;12.372;2023-05-10T04:54:38;5.23;;;3.90;;
3417;SDS011;68007;51.312;12.372;2023-05-10T04:57:05;7.10;;;3.30;;
3417;SDS011;68007;51.312;12.372;2023-05-10T04:59:35;7.90;;;3.40;;
3417;SDS011;68007;51.312;12.372;2023-05-10T05:02:02;5.93;;;3.40;;
3417;SDS011;68007;51.312;12.372;2023-05-10T05:04:30;12.77;;;3.83;;
3417;SDS011;68007;51.312;12.372;2023-05-10T05:06:57;3.60;;;3.30;;
3417;SDS011;68007;51.312;12.372;2023-05-10T05:09:26;4.80;;;3.53;;
3417;SDS011;68007;51.312;12.372;2023-05-10T05:11:54;4.73;;;3.10;;
3417;SDS011;68007;51.312;12.372;2023-05-10T05:14:21;3.73;;;3.30;;
3417;SDS011;68007;51.312;12.372;2023-05-10T05:16:50;5.83;;;3.50;;
3417;SDS011;68007;51.312;12.372;2023-05-10T05:19:18;6.53;;;4.30;;
3417;SDS011;68007;51.312;12.372;2023-05-10T05:21:46;5.00;;;3.50;;
3417;SDS011;68007;51.312;12.372;2023-05-10T05:24:13;9.90;;;3.50;;
3417;SDS011;68007;51.312;12.372;2023-05-10T05:26:42;5.07;;;3.87;;
3417;SDS011;68007;51.312;12.372;2023-05-10T05:29:09;7.63;;;3.83;;
3417;SDS011;68007;51.312;12.372;2023-05-10T05:31:37;4.13;;;3.40;;
3417;SDS011;68007;51.312;12.372;2023-05-10T05:34:04;5.83;;;3.77;;
3417;SDS011;68007;51.312;12.372;2023-05-10T05:36:32;7.93;;;3.47;;
3417;SDS011;68007;51.312;12.372;2023-05-10T05:39:03;6.60;;;3.27;;
3417;SDS011;68007;51.312;12.372;2023-05-10T05:41:31;5.27;;;3.27;;
3417;SDS011;68007;51.312;12.372;2023-05-10T05:44:00;4.53;;;3.70;;
3417;SDS011;68007;51.312;12.372;2023-05-10T05:46:27;7.17;;;4.83;;
3417;SDS011;68007;51.312;12.372;2023-05-10T05:48:55;3.57;;;3.03;;
3417;SDS011;68007;51.312;12.372;2023-05-10T05:51:23;4.67;;;3.30;;
3417;SDS011;68007;51.312;12.372;2023-05-10T05:53:50;16.87;;;3.60;;
3417;SDS011;68007;51.312;12.372;2023-05-10T05:56:18;5.80;;;4.33;;
3417;SDS011;68007;51.312;12.372;2023-05-10T05:58:50;17.13;;;3.80;;
3417;SDS011;68007;51.312;12.372;2023-05-10T06:01:19;6.93;;;4.13;;
3417;SDS011;68007;51.312;12.372;2023-05-10T06:03:46;7.03;;;3.80;;
3417;SDS011;68007;51.312;12.372;2023-05-10T06:06:14;6.20;;;3.77;;
3417;SDS011;68007;51.312;12.372;2023-05-10T06:08:41;10.10;;;4.13;;
3417;SDS011;68007;51.312;12.372;2023-05-10T06:11:09;4.43;;;3.30;;
3417;SDS011;68007;51.312;12.372;2023-05-10T06:13:36;6.60;;;3.83;;
3417;SDS011;68007;51.312;12.372;2023-05-10T06:16:04;11.90;;;4.33;;
3417;SDS011;68007;51.312;12.372;2023-05-10T06:18:33;7.03;;;4.53;;
3417;SDS011;68007;51.312;12.372;2023-05-10T06:21:01;6.20;;;3.73;;
3417;SDS011;68007;51.312;12.372;2023-05-10T06:23:29;13.30;;;4.03;;
3417;SDS011;68007;51.312;12.372;2023-05-10T06:25:56;6.17;;;3.50;;
3417;SDS011;68007;51.312;12.372;2023-05-10T06:28:24;6.53;;;4.17;;
3417;SDS011;68007;51.312;12.372;2023-05-10T06:30:51;8.80;;;3.80;;
3417;SDS011;68007;51.312;12.372;2023-05-10T06:33:19;8.00;;;3.67;;
3417;SDS011;68007;51.312;12.372;2023-05-10T06:35:48;16.53;;;4.10;;
3417;SDS011;68007;51.312;12.372;2023-05-10T06:38:15;5.00;;;3.10;;
3417;SDS011;68007;51.312;12.372;2023-05-10T06:40:43;5.60;;;3.60;;
3417;SDS011;68007;51.312;12.372;2023-05-10T06:43:10;4.40;;;3.53;;
3417;SDS011;68007;51.312;12.372;2023-05-10T06:45:38;5.83;;;3.60;;
3417;SDS011;68007;51.312;12.372;2023-05-10T06:48:06;3.93;;;3.33;;
3417;SDS011;68007;51.312;12.372;2023-05-10T06:50:34;6.23;;;3.67;;
3417;SDS011;68007;51.312;12.372;2023-05-10T06:53:03;7.93;;;3.50;;
3417;SDS011;68007;51.312;12.372;2023-05-10T06:55:30;8.40;;;3.97;;
3417;SDS011;68007;51.312;12.372;2023-05-10T06:57:58;5.00;;;3.80;;
3417;SDS011;68007;51.312;12.372;2023-05-10T07:00:25;6.37;;;3.60;;
3417;SDS011;68007;51.312;12.372;2023-05-10T07:02:53;6.30;;;3.60;;
3417;SDS011;68007;51.312;12.372;2023-05-10T07:05:20;7.27;;;3.47;;
3417;SDS011;68007;51.312;12.372;2023-05-10T07:07:48;10.20;;;3.97;;
3417;SDS011;68007;51.312;12.372;2023-05-10T07:10:17;4.50;;;3.57;;
3417;SDS011;68007;51.312;12.372;2023-05-10T07:12:45;6.27;;;3.27;;
3417;SDS011;68007;51.312;12.372;2023-05-10T07:15:12;5.90;;;3.67;;
3417;SDS011;68007;51.312;12.372;2023-05-10T07:17:40;4.10;;;3.50;;
3417;SDS011;68007;51.312;12.372;2023-05-10T07:20:08;4.37;;;3.70;;
3417;SDS011;68007;51.312;12.372;2023-05-10T07:22:35;7.87;;;3.77;;
3417;SDS011;68007;51.312;12.372;2023-05-10T07:25:03;8.40;;;3.90;;
3417;SDS011;68007;51.312;12.372;2023-05-10T07:27:33;11.43;;;4.50;;
3417;SDS011;68007;51.312;12.372;2023-05-10T07:30:00;5.80;;;3.53;;
3417;SDS011;68007;51.312;12.372;2023-05-10T07:32:28;7.97;;;4.30;;
3417;SDS011;68007;51.312;12.372;2023-05-10T07:34:56;10.33;;;4.20;;
3417;SDS011;68007;51.312;12.372;2023-05-10T07:37:23;6.33;;;4.13;;
3417;SDS011;68007;51.312;12.372;2023-05-10T07:39:51;4.17;;;3.63;;
3417;SDS011;68007;51.312;12.372;2023-05-10T07:42:18;5.13;;;4.20;;
3417;SDS011;68007;51.312;12.372;2023-05-10T07:44:47;5.87;;;4.00;;
3417;SDS011;68007;51.312;12.372;2023-05-10T07:47:15;9.33;;;4.37;;
3417;SDS011;68007;51.312;12.372;2023-05-10T07:49:42;5.93;;;3.50;;
3417;SDS011;68007;51.312;12.372;2023-05-10T07:52:10;9.10;;;3.33;;
3417;SDS011;68007;51.312;12.372;2023-05-10T07:54:37;6.77;;;4.27;;
3417;SDS011;68007;51.312;12.372;2023-05-10T07:57:05;4.27;;;3.50;;
3417;SDS011;68007;51.312;12.372;2023-05-10T07:59:32;7.07;;;4.43;;
3417;SDS011;68007;51.312;12.372;2023-05-10T08:02:01;6.33;;;4.07;;
3417;SDS011;68007;51.312;12.372;2023-05-10T08:04:29;8.27;;;3.87;;
3417;SDS011;68007;51.312;12.372;2023-05-10T08:06:56;7.63;;;4.20;;
3417;SDS011;68007;51.312;12.372;2023-05-10T08:09:24;4.83;;;3.80;;
3417;SDS011;68007;51.312;12.372;2023-05-10T08:11:51;9.40;;;4.40;;
3417;SDS011;68007;51.312;12.372;2023-05-10T08:14:19;5.30;;;4.00;;
3417;SDS011;68007;51.312;12.372;2023-05-10T08:16:46;4.40;;;3.87;;
3417;SDS011;68007;51.312;12.372;2023-05-10T08:19:15;5.53;;;3.47;;
3417;SDS011;68007;51.312;12.372;2023-05-10T08:21:44;7.80;;;4.33;;
3417;SDS011;68007;51.312;12.372;2023-05-10T08:24:12;9.20;;;4.07;;
3417;SDS011;68007;51.312;12.372;2023-05-10T08:26:39;9.07;;;4.00;;
3417;SDS011;68007;51.312;12.372;2023-05-10T08:29:07;5.50;;;3.80;;
3417;SDS011;68007;51.312;12.372;2023-05-10T08:31:34;6.13;;;4.10;;
3417;SDS011;68007;51.312;12.372;2023-05-10T08:34:02;5.50;;;3.77;;
3417;SDS011;68007;51.312;12.372;2023-05-10T08:36:31;7.13;;;3.77;;
3417;SDS011;68007;51.312;12.372;2023-05-10T08:38:58;5.73;;;4.13;;
3417;SDS011;68007;51.312;12.372;2023-05-10T08:41:26;5.37;;;3.93;;
3417;SDS011;68007;51.312;12.372;2023-05-10T08:43:54;5.87;;;4.30;;
3417;SDS011;68007;51.312;12.372;2023-05-10T08:46:22;5.40;;;4.40;;
3417;SDS011;68007;51.312;12.372;2023-05-10T08:48:50;5.40;;;3.80;;
3417;SDS011;68007;51.312;12.372;2023-05-10T08:51:18;9.43;;;4.67;;
3417;SDS011;68007;51.312;12.372;2023-05-10T08:53:50;7.13;;;3.60;;
3417;SDS011;68007;51.312;12.372;2023-05-10T08:56:18;6.23;;;4.30;;
3417;SDS011;68007;51.312;12.372;2023-05-10T08:58:46;4.77;;;4.27;;
3417;SDS011;68007;51.312;12.372;2023-05-10T09:01:14;6.93;;;4.37;;
3417;SDS011;68007;51.312;12.372;2023-05-10T09:03:45;7.23;;;4.70;;
3417;SDS011;68007;51.312;12.372;2023-05-10T09:06:13;6.73;;;4.63;;
3417;SDS011;68007;51.312;12.372;2023-05-10T09:08:41;5.23;;;4.73;;
3417;SDS011;68007;51.312;12.372;2023-05-10T09:11:11;6.70;;;4.67;;
3417;SDS011;68007;51.312;12.372;2023-05-10T09:13:39;7.73;;;5.00;;
3417;SDS011;68007;51.312;12.372;2023-05-10T09:16:09;6.20;;;4.90;;
3417;SDS011;68007;51.312;12.372;2023-05-10T09:18:36;9.23;;;5.00;;
3417;SDS011;68007;51.312;12.372;2023-05-10T09:21:04;4.90;;;4.40;;
3417;SDS011;68007;51.312;12.372;2023-05-10T09:23:31;5.10;;;4.60;;
3417;SDS011;68007;51.312;12.372;2023-05-10T09:26:02;7.37;;;4.90;;
3417;SDS011;68007;51.312;12.372;2023-05-10T09:28:32;9.20;;;4.87;;
3417;SDS011;68007;51.312;12.372;2023-05-10T09:31:00;7.30;;;4.70;;
3417;SDS011;68007;51.312;12.372;2023-05-10T09:33:27;5.87;;;4.47;;
3417;SDS011;68007;51.312;12.372;2023-05-10T09:35:55;9.73;;;5.80;;
3417;SDS011;68007;51.312;12.372;2023-05-10T09:38:44;7.83;;;5.40;;
3417;SDS011;68007;51.312;12.372;2023-05-10T09:41:15;8.70;;;5.10;;
3417;SDS011;68007;51.312;12.372;2023-05-10T09:43:45;9.60;;;5.60;;
3417;SDS011;68007;51.312;12.372;2023-05-10T09:46:13;5.30;;;4.70;;
3417;SDS011;68007;51.312;12.372;2023-05-10T09:48:42;5.57;;;5.00;;
3417;SDS011;68007;51.312;12.372;2023-05-10T09:51:16;5.90;;;5.07;;
3417;SDS011;68007;51.312;12.372;2023-05-10T09:53:46;5.40;;;4.80;;
3417;SDS011;68007;51.312;12.372;2023-05-10T09:56:15;5.67;;;5.10;;
3417;SDS011;68007;51.312;12.372;2023-05-10T09:59:04;11.60;;;5.10;;
3417;SDS011;68007;51.312;12.372;2023-05-10T10:01:33;7.43;;;5.23;;
3417;SDS011;68007;51.312;12.372;2023-05-10T10:04:02;9.80;;;5.43;;
3417;SDS011;68007;51.312;12.372;2023-05-10T10:06:34;7.53;;;5.30;;
3417;SDS011;68007;51.312;12.372;2023-05-10T10:09:03;7.37;;;5.17;;
3417;SDS011;68007;51.312;12.372;2023-05-10T10:11:34;7.40;;;5.03;;
3417;SDS011;68007;51.312;12.372;2023-05-10T10:14:02;7.67;;;5.27;;
3417;SDS011;68007;51.312;12.372;2023-05-10T10:16:32;7.60;;;5.40;;
3417;SDS011;68007;51.312;12.372;2023-05-10T10:18:59;6.33;;;4.90;;
3417;SDS011;68007;51.312;12.372;2023-05-10T10:21:27;10.83;;;5.40;;
3417;SDS011;68007;51.312;12.372;2023-05-10T10:23:56;6.63;;;5.60;;
3417;SDS011;68007;51.312;12.372;2023-05-10T10:26:24;6.30;;;4.80;;
3417;SDS011;68007;51.312;12.372;2023-05-10T10:28:56;6.60;;;5.30;;
3417;SDS011;68007;51.312;12.372;2023-05-10T10:31:36;7.70;;;5.20;;
3417;SDS011;68007;51.312;12.372;2023-05-10T10:34:08;7.53;;;6.00;;
3417;SDS011;68007;51.312;12.372;2023-05-10T10:36:42;7.57;;;5.30;;
3417;SDS011;68007;51.312;12.372;2023-05-10T10:39:12;7.20;;;6.20;;
3417;SDS011;68007;51.312;12.372;2023-05-10T10:41:40;9.53;;;5.00;;
3417;SDS011;68007;51.312;12.372;2023-05-10T10:44:26;8.53;;;5.53;;
3417;SDS011;68007;51.312;12.372;2023-05-10T10:47:04;5.80;;;5.20;;
3417;SDS011;68007;51.312;12.372;2023-05-10T10:49:37;8.77;;;5.27;;
3417;SDS011;68007;51.312;12.372;2023-05-10T10:52:17;7.63;;;5.70;;
3417;SDS011;68007;51.312;12.372;2023-05-10T10:54:51;6.93;;;5.50;;
3417;SDS011;68007;51.312;12.372;2023-05-10T10:57:20;8.27;;;6.60;;
3417;SDS011;68007;51.312;12.372;2023-05-10T10:59:48;6.93;;;5.80;;
3417;SDS011;68007;51.312;12.372;2023-05-10T11:02:36;7.00;;;5.40;;
3417;SDS011;68007;51.312;12.372;2023-05-10T11:05:34;6.83;;;5.83;;
3417;SDS011;68007;51.312;12.372;2023-05-10T11:08:07;7.70;;;5.83;;
3417;SDS011;68007;51.312;12.372;2023-05-10T11:10:38;7.30;;;6.00;;
3417;SDS011;68007;51.312;12.372;2023-05-10T11:13:08;7.70;;;6.27;;
3417;SDS011;68007;51.312;12.372;2023-05-10T11:15:36;9.50;;;5.97;;
3417;SDS011;68007;51.312;12.372;2023-05-10T11:18:18;10.37;;;7.00;;
3417;SDS011;68007;51.312;12.372;2023-05-10T11:20:49;8.50;;;5.53;;
3417;SDS011;68007;51.312;12.372;2023-05-10T11:23:17;6.90;;;6.20;;
3417;SDS011;68007;51.312;12.372;2023-05-10T11:25:47;9.27;;;6.03;;
3417;SDS011;68007;51.312;12.372;2023-05-10T11:28:16;9.20;;;6.60;;
3417;SDS011;68007;51.312;12.372;2023-05-10T11:30:45;11.40;;;6.90;;
3417;SDS011;68007;51.312;12.372;2023-05-10T11:33:15;7.80;;;5.70;;
3417;SDS011;68007;51.312;12.372;2023-05-10T11:35:45;7.50;;;6.00;;
3417;SDS011;68007;51.312;12.372;2023-05-10T11:38:13;6.90;;;5.83;;
3417;SDS011;68007;51.312;12.372;2023-05-10T11:40:41;7.97;;;6.40;;
3417;SDS011;68007;51.312;12.372;2023-05-10T11:43:08;10.70;;;6.50;;
3417;SDS011;68007;51.312;12.372;2023-05-10T11:45:38;9.90;;;6.23;;
3417;SDS011;68007;51.312;12.372;2023-05-10T11:48:06;8.50;;;6.50;;
3417;SDS011;68007;51.312;12.372;2023-05-10T11:50:36;7.83;;;6.43;;
3417;SDS011;68007;51.312;12.372;2023-05-10T11:53:03;9.13;;;6.47;;
3417;SDS011;68007;51.312;12.372;2023-05-10T11:55:33;9.80;;;7.03;;
3417;SDS011;68007;51.312;12.372;2023-05-10T11:58:01;7.40;;;6.20;;
3417;SDS011;68007;51.312;12.372;2023-05-10T12:00:29;7.83;;;6.50;;
3417;SDS011;68007;51.312;12.372;2023-05-10T12:02:57;8.83;;;7.30;;
3417;SDS011;68007;51.312;12.372;2023-05-10T12:05:27;9.90;;;6.33;;
3417;SDS011;68007;51.312;12.372;2023-05-10T12:10:39;8.33;;;6.60;;
3417;SDS011;68007;51.312;12.372;2023-05-10T12:13:10;8.13;;;6.10;;
3417;SDS011;68007;51.312;12.372;2023-05-10T12:15:39;9.23;;;6.03;;
3417;SDS011;68007;51.312;12.372;2023-05-10T12:18:08;8.47;;;7.03;;
3417;SDS011;68007;51.312;12.372;2023-05-10T12:20:37;9.93;;;6.77;;
3417;SDS011;68007;51.312;12.372;2023-05-10T12:23:05;7.80;;;6.97;;
3417;SDS011;68007;51.312;12.372;2023-05-10T12:25:36;10.20;;;6.33;;
3417;SDS011;68007;51.312;12.372;2023-05-10T12:28:05;10.03;;;6.60;;
3417;SDS011;68007;51.312;12.372;2023-05-10T12:30:34;8.73;;;6.60;;
3417;SDS011;68007;51.312;12.372;2023-05-10T12:33:07;8.60;;;7.37;;
3417;SDS011;68007;51.312;12.372;2023-05-10T12:35:43;10.20;;;6.70;;
3417;SDS011;68007;51.312;12.372;2023-05-10T12:38:24;7.70;;;5.93;;
3417;SDS011;68007;51.312;12.372;2023-05-10T12:40:56;7.87;;;6.27;;
3417;SDS011;68007;51.312;12.372;2023-05-10T12:43:24;9.10;;;6.57;;
3417;SDS011;68007;51.312;12.372;2023-05-10T12:45:52;8.40;;;6.47;;
3417;SDS011;68007;51.312;12.372;2023-05-10T12:48:20;6.87;;;6.10;;
3417;SDS011;68007;51.312;12.372;2023-05-10T12:50:47;7.20;;;4.77;;
3417;SDS011;68007;51.312;12.372;2023-05-10T12:53:15;7.50;;;5.60;;
3417;SDS011;68007;51.312;12.372;2023-05-10T12:55:43;6.50;;;5.90;;
3417;SDS011;68007;51.312;12.372;2023-05-10T12:58:12;6.80;;;6.10;;
3417;SDS011;68007;51.312;12.372;2023-05-10T13:00:40;5.87;;;5.13;;
3417;SDS011;68007;51.312;12.372;2023-05-10T13:03:09;5.70;;;5.10;;
3417;SDS011;68007;51.312;12.372;2023-05-10T13:05:36;9.40;;;6.43;;
3417;SDS011;68007;51.312;12.372;2023-05-10T13:08:04;5.50;;;4.90;;
3417;SDS011;68007;51.312;12.372;2023-05-10T13:10:32;6.17;;;4.83;;
3417;SDS011;68007;51.312;12.372;2023-05-10T13:12:59;6.17;;;5.07;;
3417;SDS011;68007;51.312;12.372;2023-05-10T13:15:28;5.40;;;4.83;;
3417;SDS011;68007;51.312;12.372;2023-05-10T13:17:56;6.93;;;5.53;;
3417;SDS011;68007;51.312;12.372;2023-05-10T13:20:24;5.00;;;4.57;;
3417;SDS011;68007;51.312;12.372;2023-05-10T13:22:52;5.63;;;4.70;;
3417;SDS011;68007;51.312;12.372;2023-05-10T13:25:20;5.13;;;4.50;;
3417;SDS011;68007;51.312;12.372;2023-05-10T13:27:47;9.03;;;5.20;;
3417;SDS011;68007;51.312;12.372;2023-05-10T13:30:15;8.57;;;4.90;;
3417;SDS011;68007;51.312;12.372;2023-05-10T13:32:44;5.70;;;5.00;;
3417;SDS011;68007;51.312;12.372;2023-05-10T13:35:11;6.70;;;4.67;;
3417;SDS011;68007;51.312;12.372;2023-05-10T13:37:39;5.23;;;4.73;;
3417;SDS011;68007;51.312;12.372;2023-05-10T13:40:07;5.80;;;5.10;;
3417;SDS011;68007;51.312;12.372;2023-05-10T13:42:35;5.47;;;4.80;;
3417;SDS011;68007;51.312;12.372;2023-05-10T13:45:03;6.20;;;5.40;;
3417;SDS011;68007;51.312;12.372;2023-05-10T13:47:31;5.90;;;5.27;;
3417;SDS011;68007;51.312;12.372;2023-05-10T13:50:00;6.50;;;5.87;;
3417;SDS011;68007;51.312;12.372;2023-05-10T13:52:29;5.50;;;4.93;;
3417;SDS011;68007;51.312;12.372;2023-05-10T13:54:56;7.33;;;4.87;;
3417;SDS011;68007;51.312;12.372;2023-05-10T13:57:24;4.73;;;4.20;;
3417;SDS011;68007;51.312;12.372;2023-05-10T13:59:51;5.13;;;4.00;;
3417;SDS011;68007;51.312;12.372;2023-05-10T14:02:19;7.17;;;4.20;;
3417;SDS011;68007;51.312;12.372;2023-05-10T14:04:47;4.70;;;3.90;;
3417;SDS011;68007;51.312;12.372;2023-05-10T14:07:16;4.40;;;4.00;;
3417;SDS011;68007;51.312;12.372;2023-05-10T14:09:43;5.83;;;4.47;;
3417;SDS011;68007;51.312;12.372;2023-05-10T14:12:11;9.53;;;4.47;;
3417;SDS011;68007;51.312;12.372;2023-05-10T14:14:40;4.80;;;4.30;;
3417;SDS011;68007;51.312;12.372;2023-05-10T14:17:07;5.10;;;4.57;;
3417;SDS011;68007;51.312;12.372;2023-05-10T14:19:35;7.73;;;4.27;;
3417;SDS011;68007;51.312;12.372;2023-05-10T14:22:02;5.53;;;4.70;;
3417;SDS011;68007;51.312;12.372;2023-05-10T14:24:31;6.37;;;4.40;;
3417;SDS011;68007;51.312;12.372;2023-05-10T14:26:59;4.67;;;4.17;;
3417;SDS011;68007;51.312;12.372;2023-05-10T14:29:26;6.03;;;4.83;;
3417;SDS011;68007;51.312;12.372;2023-05-10T14:31:54;6.43;;;5.47;;
3417;SDS011;68007;51.312;12.372;2023-05-10T14:34:21;7.33;;;5.07;;
3417;SDS011;68007;51.312;12.372;2023-05-10T14:36:49;5.37;;;4.90;;
3417;SDS011;68007;51.312;12.372;2023-05-10T14:39:16;4.97;;;3.77;;
3417;SDS011;68007;51.312;12.372;2023-05-10T14:41:45;4.57;;;3.97;;
3417;SDS011;68007;51.312;12.372;2023-05-10T14:44:13;5.50;;;4.00;;
3417;SDS011;68007;51.312;12.372;2023-05-10T14:46:41;3.73;;;3.40;;
3417;SDS011;68007;51.312;12.372;2023-05-10T14:49:08;3.67;;;3.20;;
3417;SDS011;68007;51.312;12.372;2023-05-10T14:51:36;4.30;;;2.77;;
3417;SDS011;68007;51.312;12.372;2023-05-10T14:54:03;2.30;;;2.10;;
3417;SDS011;68007;51.312;12.372;2023-05-10T14:56:31;4.53;;;2.10;;
3417;SDS011;68007;51.312;12.372;2023-05-10T14:59:00;1.70;;;1.60;;
3417;SDS011;68007;51.312;12.372;2023-05-10T15:01:29;2.50;;;1.77;;
3417;SDS011;68007;51.312;12.372;2023-05-10T15:03:58;3.00;;;1.90;;
3417;SDS011;68007;51.312;12.372;2023-05-10T15:06:31;4.33;;;2.00;;
3417;SDS011;68007;51.312;12.372;2023-05-10T15:09:01;2.37;;;1.30;;